Time;durP1;ratioP1;P1;durP2;ratioP2;P2;SDS_P1;SDS_P2;PMS_P1;PMS_P2;Temp;Humidity;BMP_temperature;BMP_pressure;BME280_temperature;BME280_humidity;BME280_pressure;Samples;Min_cycle;Max_cycle;Signal;HPM_P1;HPM_P2
2023/08/08 00:01:12;;;;;;;;;;;22.20;99.90;;;;;;5136123;27;19911;-77
2023/08/08 00:03:38;;;;;;;;;;;22.10;99.90;;;;;;5136287;27;20221;-76
2023/08/08 00:06:03;;;;;;;;;;;22.10;99.90;;;;;;5135462;27;19904;-76
2023/08/08 00:08:29;;;;;;;;;;;22.10;99.90;;;;;;5135155;27;19903;-76
2023/08/08 00:10:55;;;;;;;;;;;22.10;99.90;;;;;;5136222;27;19903;-76
2023/08/08 00:13:21;;;;;;;;;;;22.10;99.90;;;;;;5136479;27;20241;-76
2023/08/08 00:15:47;;;;;;;;;;;22.10;99.90;;;;;;5136019;27;19956;-76
2023/08/08 00:18:14;;;;;;;;;;;22.00;99.90;;;;;;5136029;27;19907;-76
2023/08/08 00:20:40;;;;;;;;;;;22.10;99.90;;;;;;5136585;27;19903;-76
2023/08/08 00:23:05;;;;;;;;;;;22.10;99.90;;;;;;5136288;27;20416;-77
2023/08/08 00:25:31;;;;;;;;;;;22.00;99.90;;;;;;5136286;27;19916;-76
2023/08/08 00:27:57;;;;;;;;;;;22.00;99.90;;;;;;5136172;27;19960;-76
2023/08/08 00:30:23;;;;;;;;;;;22.00;99.90;;;;;;5136242;27;19903;-77
2023/08/08 00:32:49;;;;;;;;;;;22.00;99.90;;;;;;5136375;27;19910;-76
2023/08/08 00:35:15;;;;;;;;;;;22.00;99.90;;;;;;5136850;27;19903;-77
2023/08/08 00:37:41;;;;;;;;;;;22.00;99.90;;;;;;5135816;27;19930;-77
2023/08/08 00:40:07;;;;;;;;;;;22.00;99.90;;;;;;5135888;27;19911;-77
2023/08/08 00:42:33;;;;;;;;;;;22.00;99.90;;;;;;5135994;27;19903;-76
2023/08/08 00:45:03;;;;;;;;;;;22.00;99.90;;;;;;5135970;27;19998;-77
2023/08/08 00:47:32;;;;;;;;;;;22.00;99.90;;;;;;5134450;27;19910;-77
2023/08/08 00:49:58;;;;;;;;;;;22.00;99.90;;;;;;5134448;27;20366;-77
2023/08/08 00:52:25;;;;;;;;;;;21.90;99.90;;;;;;5134328;27;19910;-76
2023/08/08 00:54:52;;;;;;;;;;;21.90;99.90;;;;;;5135920;27;19990;-77
2023/08/08 00:57:18;;;;;;;;;;;21.90;99.90;;;;;;5136034;27;20339;-76
2023/08/08 00:59:43;;;;;;;;;;;21.90;99.90;;;;;;5133924;27;19904;-76
2023/08/08 01:02:10;;;;;;;;;;;21.90;99.90;;;;;;5135336;27;19903;-77
2023/08/08 01:04:36;;;;;;;;;;;22.00;99.90;;;;;;5133950;27;19976;-76
2023/08/08 01:07:07;;;;;;;;;;;21.90;99.90;;;;;;5135396;27;19911;-76
2023/08/08 01:09:45;;;;;;;;;;;21.90;99.90;;;;;;5135142;27;19903;-77
2023/08/08 01:12:12;;;;;;;;;;;21.90;99.90;;;;;;5135312;27;20390;-76
2023/08/08 01:14:40;;;;;;;;;;;21.90;99.90;;;;;;5135144;27;19910;-77
2023/08/08 01:17:06;;;;;;;;;;;21.90;99.90;;;;;;5134206;27;19911;-76
2023/08/08 01:19:35;;;;;;;;;;;22.00;99.90;;;;;;5134949;27;19911;-77
2023/08/08 01:22:04;;;;;;;;;;;21.90;99.90;;;;;;5135169;27;20351;-76
2023/08/08 01:24:32;;;;;;;;;;;21.90;99.90;;;;;;5135011;27;19904;-77
2023/08/08 01:26:59;;;;;;;;;;;21.90;99.90;;;;;;5134793;27;19904;-76
2023/08/08 01:29:25;;;;;;;;;;;22.00;99.90;;;;;;5134754;27;19926;-77
2023/08/08 01:31:50;;;;;;;;;;;22.00;99.90;;;;;;5133250;27;20355;-76
2023/08/08 01:34:16;;;;;;;;;;;22.00;99.90;;;;;;5134720;27;19904;-76
2023/08/08 01:36:46;;;;;;;;;;;22.00;99.90;;;;;;5134467;27;20003;-76
2023/08/08 01:39:16;;;;;;;;;;;22.10;99.90;;;;;;5134697;27;20018;-76
2023/08/08 01:41:43;;;;;;;;;;;22.10;99.90;;;;;;5134453;27;19925;-76
2023/08/08 01:44:09;;;;;;;;;;;22.10;99.90;;;;;;5134393;27;19949;-76
2023/08/08 01:46:36;;;;;;;;;;;22.10;99.90;;;;;;5134178;27;20004;-76
2023/08/08 01:49:02;;;;;;;;;;;22.00;99.90;;;;;;5134271;27;19914;-77
2023/08/08 01:51:28;;;;;;;;;;;22.00;99.90;;;;;;5134305;27;19903;-77
2023/08/08 01:53:53;;;;;;;;;;;22.10;99.90;;;;;;5134816;27;20351;-76
2023/08/08 01:56:19;;;;;;;;;;;22.10;99.90;;;;;;5134488;27;19912;-77
2023/08/08 01:58:45;;;;;;;;;;;22.00;99.90;;;;;;5134154;27;19958;-76
2023/08/08 02:01:11;;;;;;;;;;;21.90;99.90;;;;;;5134401;27;19919;-77
2023/08/08 02:03:37;;;;;;;;;;;21.90;99.90;;;;;;5134784;27;19922;-77
2023/08/08 02:06:03;;;;;;;;;;;22.00;99.90;;;;;;5134269;27;19903;-77
2023/08/08 02:08:28;;;;;;;;;;;21.90;99.90;;;;;;5149868;27;19911;-76
2023/08/08 02:10:54;;;;;;;;;;;22.00;99.90;;;;;;5132596;27;19910;-76
2023/08/08 02:13:20;;;;;;;;;;;22.00;99.90;;;;;;5133969;27;20363;-77
2023/08/08 02:15:46;;;;;;;;;;;21.90;99.90;;;;;;5133991;27;19903;-76
2023/08/08 02:18:12;;;;;;;;;;;21.90;99.90;;;;;;5134301;27;19919;-76
2023/08/08 02:20:37;;;;;;;;;;;21.90;99.90;;;;;;5134192;27;19943;-77
2023/08/08 02:23:03;;;;;;;;;;;21.90;99.90;;;;;;5133884;27;19903;-76
2023/08/08 02:25:30;;;;;;;;;;;21.90;99.90;;;;;;5132612;27;19903;-76
2023/08/08 02:27:56;;;;;;;;;;;21.90;99.90;;;;;;5133452;27;19904;-76
2023/08/08 02:30:22;;;;;;;;;;;21.90;99.90;;;;;;5133793;27;19903;-76
2023/08/08 02:32:48;;;;;;;;;;;21.90;99.90;;;;;;5133863;27;19990;-76
2023/08/08 02:35:15;;;;;;;;;;;22.00;99.90;;;;;;5133749;28;19907;-76
2023/08/08 02:37:40;;;;;;;;;;;22.00;99.90;;;;;;5133551;27;19915;-77
2023/08/08 02:40:07;;;;;;;;;;;22.00;99.90;;;;;;5134199;27;19904;-76
2023/08/08 02:42:33;;;;;;;;;;;22.00;99.90;;;;;;5133879;27;19903;-76
2023/08/08 02:45:00;;;;;;;;;;;22.00;99.90;;;;;;5133973;27;19903;-77
2023/08/08 02:47:26;;;;;;;;;;;22.00;99.90;;;;;;5134125;27;19903;-76
2023/08/08 02:49:51;;;;;;;;;;;22.00;99.90;;;;;;5133784;28;20040;-75
2023/08/08 02:52:17;;;;;;;;;;;22.00;99.90;;;;;;5133833;28;20010;-76
2023/08/08 02:54:43;;;;;;;;;;;22.10;99.90;;;;;;5133733;28;20002;-77
2023/08/08 02:57:10;;;;;;;;;;;22.10;99.90;;;;;;5133511;27;19907;-76
2023/08/08 02:59:36;;;;;;;;;;;22.10;99.90;;;;;;5133290;27;20010;-77
2023/08/08 03:02:03;;;;;;;;;;;22.00;99.90;;;;;;5133515;27;19908;-77
2023/08/08 03:04:29;;;;;;;;;;;22.00;99.90;;;;;;5133702;27;20313;-77
2023/08/08 03:06:55;;;;;;;;;;;22.00;99.90;;;;;;5132078;28;19904;-76
2023/08/08 03:09:21;;;;;;;;;;;22.00;99.90;;;;;;5133642;27;19908;-76
2023/08/08 03:11:47;;;;;;;;;;;22.00;99.90;;;;;;5133441;27;19903;-77
2023/08/08 03:14:13;;;;;;;;;;;22.00;99.90;;;;;;5131918;28;20347;-76
2023/08/08 03:16:39;;;;;;;;;;;22.10;99.90;;;;;;5131886;28;20340;-77
2023/08/08 03:19:05;;;;;;;;;;;22.10;99.90;;;;;;5133770;27;19957;-77
2023/08/08 03:21:31;;;;;;;;;;;22.00;99.90;;;;;;5131995;28;19910;-76
2023/08/08 03:23:57;;;;;;;;;;;22.00;99.90;;;;;;5133749;28;19914;-77
2023/08/08 03:26:23;;;;;;;;;;;22.00;99.90;;;;;;5133593;27;19942;-76
2023/08/08 03:28:50;;;;;;;;;;;22.00;99.90;;;;;;5133809;27;19998;-77
2023/08/08 03:31:17;;;;;;;;;;;22.00;99.90;;;;;;5133110;27;19986;-76
2023/08/08 03:33:43;;;;;;;;;;;22.00;99.90;;;;;;5132051;28;19910;-76
2023/08/08 03:36:09;;;;;;;;;;;22.00;99.90;;;;;;5133599;27;19911;-76
2023/08/08 03:38:36;;;;;;;;;;;22.00;99.90;;;;;;5133754;27;19912;-76
2023/08/08 03:41:01;;;;;;;;;;;22.00;99.90;;;;;;5134130;27;19912;-76
2023/08/08 03:43:27;;;;;;;;;;;22.00;99.90;;;;;;5135900;27;19904;-76
2023/08/08 03:45:53;;;;;;;;;;;22.10;99.90;;;;;;5136758;27;20414;-74
2023/08/08 03:48:19;;;;;;;;;;;22.00;99.90;;;;;;5136904;27;20297;-75
2023/08/08 03:50:46;;;;;;;;;;;22.10;99.90;;;;;;5136567;27;19904;-76
2023/08/08 03:53:12;;;;;;;;;;;22.00;99.90;;;;;;5136634;27;19907;-75
2023/08/08 03:55:38;;;;;;;;;;;22.00;99.90;;;;;;5137178;27;19953;-77
2023/08/08 03:58:05;;;;;;;;;;;22.10;99.90;;;;;;5136494;27;19966;-75
2023/08/08 04:00:31;;;;;;;;;;;22.00;99.90;;;;;;5136226;27;19949;-73
2023/08/08 04:02:57;;;;;;;;;;;22.00;99.90;;;;;;5136680;27;19907;-73
2023/08/08 04:05:23;;;;;;;;;;;22.00;99.90;;;;;;5136394;27;19903;-76
2023/08/08 04:07:49;;;;;;;;;;;22.00;99.90;;;;;;5136527;27;20019;-76
2023/08/08 04:10:14;;;;;;;;;;;22.00;99.90;;;;;;5135041;27;20055;-77
2023/08/08 04:12:40;;;;;;;;;;;22.00;99.90;;;;;;5136626;27;19937;-76
2023/08/08 04:15:06;;;;;;;;;;;22.00;99.90;;;;;;5134628;27;19903;-74
2023/08/08 04:17:32;;;;;;;;;;;22.10;99.90;;;;;;5136436;27;20347;-74
2023/08/08 04:19:58;;;;;;;;;;;22.10;99.90;;;;;;5136014;27;19910;-74
2023/08/08 04:22:24;;;;;;;;;;;22.10;99.90;;;;;;5135226;27;19903;-74
2023/08/08 04:24:50;;;;;;;;;;;22.10;99.90;;;;;;5136026;27;19903;-74
2023/08/08 04:27:16;;;;;;;;;;;22.10;99.90;;;;;;5135811;27;19951;-74
2023/08/08 04:29:42;;;;;;;;;;;22.20;99.90;;;;;;5135660;27;19950;-75
2023/08/08 04:32:08;;;;;;;;;;;22.20;99.90;;;;;;5136270;27;20033;-74
2023/08/08 04:34:33;;;;;;;;;;;22.20;99.90;;;;;;5134192;27;20355;-75
2023/08/08 04:37:02;;;;;;;;;;;22.30;99.90;;;;;;5135377;27;19915;-74
2023/08/08 04:39:29;;;;;;;;;;;22.10;99.90;;;;;;5135518;27;19916;-75
2023/08/08 04:41:55;;;;;;;;;;;22.10;99.90;;;;;;5136039;27;19997;-75
2023/08/08 04:44:21;;;;;;;;;;;22.10;99.90;;;;;;5135761;27;20382;-75
2023/08/08 04:46:46;;;;;;;;;;;22.00;99.90;;;;;;5133843;27;19903;-75
2023/08/08 04:49:12;;;;;;;;;;;22.10;99.90;;;;;;5134019;27;19914;-75
2023/08/08 04:51:38;;;;;;;;;;;22.20;99.90;;;;;;5135016;27;19903;-75
2023/08/08 04:54:04;;;;;;;;;;;22.20;99.90;;;;;;5135570;27;20343;-75
2023/08/08 04:56:30;;;;;;;;;;;22.20;99.90;;;;;;5135265;27;19909;-74
2023/08/08 04:58:56;;;;;;;;;;;22.30;99.90;;;;;;5135448;27;20213;-74
2023/08/08 05:01:22;;;;;;;;;;;22.30;99.90;;;;;;5134714;27;19908;-75
2023/08/08 05:03:48;;;;;;;;;;;22.30;99.90;;;;;;5134546;27;19903;-74
2023/08/08 05:06:14;;;;;;;;;;;22.40;99.90;;;;;;5135028;27;19909;-75
2023/08/08 05:08:39;;;;;;;;;;;22.40;99.90;;;;;;5133534;27;19998;-75
2023/08/08 05:11:05;;;;;;;;;;;22.20;99.90;;;;;;5133492;27;19903;-74
2023/08/08 05:13:31;;;;;;;;;;;22.40;99.90;;;;;;5133340;27;19903;-76
2023/08/08 05:15:57;;;;;;;;;;;22.40;99.90;;;;;;5133020;27;19957;-75
2023/08/08 05:18:23;;;;;;;;;;;22.40;99.90;;;;;;5134552;27;19981;-75
2023/08/08 05:20:48;;;;;;;;;;;22.90;99.90;;;;;;5134527;27;20252;-75
2023/08/08 05:23:14;;;;;;;;;;;24.40;99.90;;;;;;5134437;27;19903;-75
2023/08/08 05:25:40;;;;;;;;;;;26.10;99.90;;;;;;5134443;27;20411;-75
2023/08/08 05:28:06;;;;;;;;;;;27.90;99.90;;;;;;5134459;27;20006;-75
2023/08/08 05:30:33;;;;;;;;;;;29.40;99.90;;;;;;5134312;27;19954;-75
2023/08/08 05:32:59;;;;;;;;;;;30.10;99.90;;;;;;5134355;27;19904;-75
2023/08/08 05:35:25;;;;;;;;;;;31.80;99.90;;;;;;5134351;27;19903;-75
2023/08/08 05:37:51;;;;;;;;;;;32.60;99.90;;;;;;5133976;27;20356;-77
2023/08/08 05:40:17;;;;;;;;;;;33.90;99.90;;;;;;5134539;27;19926;-76
2023/08/08 05:42:42;;;;;;;;;;;34.20;99.90;;;;;;5134303;27;20259;-75
2023/08/08 05:45:08;;;;;;;;;;;34.80;99.90;;;;;;5134271;27;19930;-76
2023/08/08 05:47:34;;;;;;;;;;;34.40;99.90;;;;;;5134475;27;19979;-76
2023/08/08 05:50:00;;;;;;;;;;;34.10;99.90;;;;;;5134069;27;20065;-75
2023/08/08 05:52:26;;;;;;;;;;;34.10;99.90;;;;;;5132494;27;19952;-76
2023/08/08 05:54:52;;;;;;;;;;;35.20;99.90;;;;;;5132597;27;19990;-76
2023/08/08 05:57:18;;;;;;;;;;;34.80;99.50;;;;;;5132661;27;19903;-76
2023/08/08 05:59:44;;;;;;;;;;;35.10;99.40;;;;;;5134214;27;20215;-76
2023/08/08 06:02:11;;;;;;;;;;;35.70;98.90;;;;;;5133759;27;20320;-76
2023/08/08 06:04:38;;;;;;;;;;;36.60;97.60;;;;;;5133404;27;20354;-75
2023/08/08 06:07:04;;;;;;;;;;;36.50;97.40;;;;;;5133969;27;19939;-76
2023/08/08 06:09:32;;;;;;;;;;;35.60;97.40;;;;;;5132115;27;20412;-76
2023/08/08 06:11:58;;;;;;;;;;;36.30;97.00;;;;;;5132637;27;19908;-76
2023/08/08 06:14:24;;;;;;;;;;;35.90;97.20;;;;;;5133872;27;20223;-76
2023/08/08 06:16:50;;;;;;;;;;;36.40;96.90;;;;;;5133619;27;19910;-76
2023/08/08 06:19:16;;;;;;;;;;;36.40;97.30;;;;;;5133948;27;19915;-77
2023/08/08 06:21:42;;;;;;;;;;;35.80;97.00;;;;;;5133557;27;19907;-76
2023/08/08 06:24:08;;;;;;;;;;;36.10;97.10;;;;;;5134000;27;19963;-77
2023/08/08 06:26:33;;;;;;;;;;;36.20;96.50;;;;;;5133314;27;19915;-77
2023/08/08 06:28:59;;;;;;;;;;;36.90;96.20;;;;;;5133764;27;20289;-76
2023/08/08 06:31:26;;;;;;;;;;;36.20;96.50;;;;;;5134263;27;19952;-77
2023/08/08 06:33:51;;;;;;;;;;;37.30;95.60;;;;;;5133402;27;20001;-78
2023/08/08 06:36:20;;;;;;;;;;;37.00;95.90;;;;;;5131825;28;20351;-77
2023/08/08 06:38:46;;;;;;;;;;;38.10;95.00;;;;;;5131997;28;20062;-77
2023/08/08 06:41:12;;;;;;;;;;;38.10;94.10;;;;;;5133986;27;19959;-76
2023/08/08 06:43:39;;;;;;;;;;;36.90;95.20;;;;;;5133350;27;20006;-76
2023/08/08 06:46:04;;;;;;;;;;;38.10;94.20;;;;;;5133306;27;19903;-76
2023/08/08 06:48:30;;;;;;;;;;;38.50;93.70;;;;;;5133409;27;20359;-76
2023/08/08 06:50:56;;;;;;;;;;;39.70;92.80;;;;;;5133575;27;19903;-76
2023/08/08 06:53:23;;;;;;;;;;;39.10;92.10;;;;;;5132833;27;19930;-78
2023/08/08 06:55:48;;;;;;;;;;;37.30;94.30;;;;;;5135106;27;19998;-82
2023/08/08 06:58:14;;;;;;;;;;;35.70;94.70;;;;;;5133778;27;19961;-77
2023/08/08 07:00:40;;;;;;;;;;;34.90;96.10;;;;;;5131774;28;19903;-77
2023/08/08 07:03:06;;;;;;;;;;;35.40;95.40;;;;;;5132994;27;19903;-79
2023/08/08 07:05:32;;;;;;;;;;;37.40;94.30;;;;;;5131899;28;19914;-81
2023/08/08 07:07:58;;;;;;;;;;;36.70;94.10;;;;;;5133268;27;20232;-79
2023/08/08 07:10:24;;;;;;;;;;;35.80;94.50;;;;;;5133313;27;19903;-79
2023/08/08 07:12:49;;;;;;;;;;;36.10;95.00;;;;;;5133669;28;19960;-79
2023/08/08 07:15:15;;;;;;;;;;;36.10;94.00;;;;;;5135789;27;19903;-79
2023/08/08 07:17:41;;;;;;;;;;;36.40;93.70;;;;;;5136800;27;20375;-78
2023/08/08 07:20:08;;;;;;;;;;;37.10;93.20;;;;;;5137074;27;19903;-78
2023/08/08 07:22:34;;;;;;;;;;;36.20;93.30;;;;;;5137070;27;19955;-78
2023/08/08 07:24:59;;;;;;;;;;;36.30;93.90;;;;;;5137029;27;19903;-70
2023/08/08 07:27:28;;;;;;;;;;;35.90;93.20;;;;;;5135520;27;20386;-72
2023/08/08 07:29:54;;;;;;;;;;;34.60;93.50;;;;;;5137196;27;19910;-73
2023/08/08 07:32:20;;;;;;;;;;;34.20;93.60;;;;;;5137135;27;19907;-71
2023/08/08 07:34:46;;;;;;;;;;;32.50;94.40;;;;;;5137080;27;19914;-71
2023/08/08 07:37:11;;;;;;;;;;;31.40;94.80;;;;;;5136630;27;20338;-72
2023/08/08 07:39:37;;;;;;;;;;;30.70;95.20;;;;;;5136354;27;19911;-71
2023/08/08 07:42:03;;;;;;;;;;;29.70;96.80;;;;;;5136727;27;20436;-71
2023/08/08 07:44:31;;;;;;;;;;;29.70;97.40;;;;;;5136563;27;20002;-71
2023/08/08 07:46:57;;;;;;;;;;;29.40;97.80;;;;;;5136444;27;19908;-71
2023/08/08 07:49:25;;;;;;;;;;;29.70;98.30;;;;;;5136321;27;20021;-71
2023/08/08 07:51:51;;;;;;;;;;;29.20;98.50;;;;;;5136396;27;20050;-71
2023/08/08 07:54:17;;;;;;;;;;;29.90;98.60;;;;;;5134956;27;19904;-72
2023/08/08 07:56:43;;;;;;;;;;;29.90;97.80;;;;;;5136091;27;20054;-71
2023/08/08 07:59:09;;;;;;;;;;;29.90;97.80;;;;;;5136368;27;19911;-72
2023/08/08 08:01:35;;;;;;;;;;;30.30;97.50;;;;;;5136146;27;19960;-71
2023/08/08 08:04:02;;;;;;;;;;;30.20;97.90;;;;;;5136036;27;19990;-72
2023/08/08 08:06:28;;;;;;;;;;;30.20;97.50;;;;;;5135977;27;19903;-71
2023/08/08 08:08:54;;;;;;;;;;;29.30;97.80;;;;;;5136322;27;19915;-70
2023/08/08 08:11:20;;;;;;;;;;;28.70;98.70;;;;;;5136006;27;19999;-72
2023/08/08 08:13:45;;;;;;;;;;;28.80;98.80;;;;;;5134802;27;19913;-71
2023/08/08 08:16:12;;;;;;;;;;;28.40;98.70;;;;;;5135733;27;19968;-70
2023/08/08 08:18:38;;;;;;;;;;;28.70;98.90;;;;;;5135886;27;19915;-70
2023/08/08 08:21:04;;;;;;;;;;;27.90;99.00;;;;;;5135830;27;19910;-70
2023/08/08 08:23:32;;;;;;;;;;;28.00;99.30;;;;;;5135830;27;20297;-71
2023/08/08 08:25:58;;;;;;;;;;;28.20;99.10;;;;;;5135325;27;19908;-71
2023/08/08 08:28:23;;;;;;;;;;;28.70;98.90;;;;;;5135847;27;20305;-71
2023/08/08 08:30:49;;;;;;;;;;;29.70;98.50;;;;;;5135646;27;19998;-72
2023/08/08 08:33:15;;;;;;;;;;;30.40;97.50;;;;;;5135705;27;20271;-72
2023/08/08 08:35:41;;;;;;;;;;;30.80;97.40;;;;;;5135656;27;19904;-72
2023/08/08 08:38:07;;;;;;;;;;;31.20;96.70;;;;;;5135633;27;19922;-72
2023/08/08 08:40:35;;;;;;;;;;;31.70;97.00;;;;;;5135698;27;19907;-72
2023/08/08 08:43:02;;;;;;;;;;;32.30;96.60;;;;;;5135889;27;19907;-72
2023/08/08 08:45:29;;;;;;;;;;;32.50;96.20;;;;;;5135616;27;19942;-72
2023/08/08 08:47:56;;;;;;;;;;;32.50;95.90;;;;;;5135479;27;19956;-72
2023/08/08 08:50:22;;;;;;;;;;;32.70;96.30;;;;;;5135883;27;20252;-72
2023/08/08 08:52:47;;;;;;;;;;;32.30;95.60;;;;;;5135299;27;19950;-71
2023/08/08 08:55:13;;;;;;;;;;;32.60;95.80;;;;;;5135662;27;19964;-72
2023/08/08 08:57:39;;;;;;;;;;;33.10;95.70;;;;;;5133829;27;20374;-73
2023/08/08 09:00:06;;;;;;;;;;;33.20;95.50;;;;;;5135046;27;20006;-70
2023/08/08 09:02:32;;;;;;;;;;;33.40;94.80;;;;;;5135201;27;19935;-71
2023/08/08 09:04:58;;;;;;;;;;;33.50;94.60;;;;;;5134955;27;19907;-71
2023/08/08 09:07:26;;;;;;;;;;;33.60;94.50;;;;;;5135335;27;19903;-71
2023/08/08 09:09:52;;;;;;;;;;;33.40;94.40;;;;;;5134874;27;19910;-71
2023/08/08 09:12:18;;;;;;;;;;;33.30;94.40;;;;;;5135375;27;19903;-72
2023/08/08 09:14:44;;;;;;;;;;;33.30;94.20;;;;;;5135048;27;19999;-71
2023/08/08 09:17:11;;;;;;;;;;;33.00;94.60;;;;;;5135006;27;20254;-72
2023/08/08 09:19:37;;;;;;;;;;;32.70;94.80;;;;;;5134736;27;19934;-71
2023/08/08 09:22:03;;;;;;;;;;;32.80;94.30;;;;;;5135133;27;20336;-71
2023/08/08 09:24:28;;;;;;;;;;;32.50;94.70;;;;;;5134612;27;20351;-72
2023/08/08 09:26:54;;;;;;;;;;;32.40;95.10;;;;;;5134505;27;20359;-72
2023/08/08 09:29:20;;;;;;;;;;;32.30;95.10;;;;;;5134896;27;19911;-72
2023/08/08 09:31:47;;;;;;;;;;;32.20;95.10;;;;;;5134334;27;19910;-72
2023/08/08 09:34:13;;;;;;;;;;;31.90;95.40;;;;;;5134237;27;19915;-71
2023/08/08 09:36:40;;;;;;;;;;;31.50;96.20;;;;;;5133988;27;19933;-71
2023/08/08 09:39:06;;;;;;;;;;;31.40;96.30;;;;;;5133100;27;19911;-71
2023/08/08 09:41:32;;;;;;;;;;;31.00;96.60;;;;;;5132542;27;20242;-71
2023/08/08 09:43:58;;;;;;;;;;;30.90;97.00;;;;;;5134214;27;19907;-70
2023/08/08 09:46:24;;;;;;;;;;;31.10;96.50;;;;;;5133640;27;19907;-72
2023/08/08 09:48:51;;;;;;;;;;;31.20;96.40;;;;;;5134057;27;19964;-71
2023/08/08 09:51:17;;;;;;;;;;;31.10;96.50;;;;;;5134037;27;19911;-71
2023/08/08 09:53:44;;;;;;;;;;;31.20;96.40;;;;;;5133953;27;20286;-71
2023/08/08 09:56:10;;;;;;;;;;;31.30;96.00;;;;;;5134334;27;19904;-72
2023/08/08 09:58:36;;;;;;;;;;;31.00;96.20;;;;;;5134010;27;20006;-71
2023/08/08 10:01:04;;;;;;;;;;;30.90;96.20;;;;;;5133851;27;19947;-72
2023/08/08 10:03:31;;;;;;;;;;;31.00;96.20;;;;;;5133859;27;20356;-72
2023/08/08 10:05:57;;;;;;;;;;;30.90;95.90;;;;;;5133665;27;19910;-72
2023/08/08 10:08:23;;;;;;;;;;;30.80;96.00;;;;;;5133634;27;19907;-73
2023/08/08 10:10:50;;;;;;;;;;;30.50;96.40;;;;;;5134159;27;19903;-72
2023/08/08 10:13:20;;;;;;;;;;;30.50;96.20;;;;;;5133832;27;20356;-72
2023/08/08 10:15:46;;;;;;;;;;;30.40;95.60;;;;;;5133421;27;20395;-72
2023/08/08 10:18:12;;;;;;;;;;;30.30;95.50;;;;;;5133467;27;19919;-72
2023/08/08 10:20:38;;;;;;;;;;;30.40;95.30;;;;;;5133188;27;20376;-72
2023/08/08 10:23:07;;;;;;;;;;;30.70;95.20;;;;;;5133364;27;19914;-72
2023/08/08 10:25:32;;;;;;;;;;;30.70;94.80;;;;;;5133857;27;19962;-72
2023/08/08 10:28:03;;;;;;;;;;;30.80;94.30;;;;;;5131973;27;19951;-73
2023/08/08 10:30:29;;;;;;;;;;;30.70;94.10;;;;;;5133184;27;19910;-73
2023/08/08 10:32:56;;;;;;;;;;;30.70;94.50;;;;;;5133471;27;19907;-74
2023/08/08 10:35:24;;;;;;;;;;;30.60;94.00;;;;;;5133286;27;19910;-72
2023/08/08 10:37:54;;;;;;;;;;;30.50;94.40;;;;;;5132991;27;19998;-72
2023/08/08 10:40:21;;;;;;;;;;;30.70;94.20;;;;;;5133963;27;19908;-73
2023/08/08 10:42:47;;;;;;;;;;;31.00;94.20;;;;;;5132217;28;19926;-72
2023/08/08 10:45:14;;;;;;;;;;;30.80;93.90;;;;;;5134091;27;19904;-73
2023/08/08 10:47:40;;;;;;;;;;;30.70;93.30;;;;;;5133344;27;19903;-72
2023/08/08 10:50:13;;;;;;;;;;;30.50;92.90;;;;;;5136072;27;19910;-71
2023/08/08 10:52:53;;;;;;;;;;;30.60;92.60;;;;;;5137784;27;19910;-75
2023/08/08 10:55:23;;;;;;;;;;;30.50;93.00;;;;;;5137516;27;19911;-73
2023/08/08 10:57:59;;;;;;;;;;;30.30;94.10;;;;;;5137645;27;19903;-71
2023/08/08 11:00:29;;;;;;;;;;;30.20;95.70;;;;;;5137152;27;20011;-71
2023/08/08 11:02:56;;;;;;;;;;;30.10;96.70;;;;;;5137547;27;20303;-70
2023/08/08 11:05:23;;;;;;;;;;;29.50;98.40;;;;;;5135796;27;19911;-75
2023/08/08 11:07:48;;;;;;;;;;;29.20;99.00;;;;;;5135593;27;19910;-72
2023/08/08 11:10:14;;;;;;;;;;;29.10;98.90;;;;;;5137236;27;19903;-74
2023/08/08 11:12:40;;;;;;;;;;;29.10;99.10;;;;;;5152971;27;19903;-75
2023/08/08 11:15:06;;;;;;;;;;;29.10;99.50;;;;;;5135620;27;19907;-73
2023/08/08 11:17:32;;;;;;;;;;;29.20;99.90;;;;;;5136817;27;19910;-73
2023/08/08 11:19:58;;;;;;;;;;;29.30;99.90;;;;;;5136915;27;20010;-73
2023/08/08 11:22:24;;;;;;;;;;;29.30;99.90;;;;;;5136920;27;19903;-73
2023/08/08 11:24:50;;;;;;;;;;;29.40;99.80;;;;;;5137074;27;19903;-75
2023/08/08 11:27:16;;;;;;;;;;;29.30;99.90;;;;;;5137520;27;19939;-75
2023/08/08 11:29:52;;;;;;;;;;;29.40;99.90;;;;;;5137225;27;20367;-72
2023/08/08 11:32:18;;;;;;;;;;;29.30;99.90;;;;;;5136580;27;19923;-74
2023/08/08 11:34:43;;;;;;;;;;;29.50;99.90;;;;;;5137452;27;20263;-72
2023/08/08 11:37:10;;;;;;;;;;;29.50;99.90;;;;;;5136563;27;19915;-72
2023/08/08 11:39:37;;;;;;;;;;;29.70;99.90;;;;;;5135197;27;19998;-72
2023/08/08 11:42:03;;;;;;;;;;;29.40;99.90;;;;;;5136935;27;20009;-71
2023/08/08 11:44:29;;;;;;;;;;;29.50;99.90;;;;;;5136981;27;19949;-71
2023/08/08 11:46:54;;;;;;;;;;;29.50;99.90;;;;;;5136506;27;19903;-72
2023/08/08 11:49:20;;;;;;;;;;;29.50;99.90;;;;;;5135227;27;20232;-72
2023/08/08 11:51:46;;;;;;;;;;;29.40;99.90;;;;;;5135117;27;20047;-72
2023/08/08 11:54:12;;;;;;;;;;;29.30;99.90;;;;;;5136507;27;19994;-72
2023/08/08 11:56:38;;;;;;;;;;;29.40;99.90;;;;;;5136474;27;19910;-72
2023/08/08 11:59:05;;;;;;;;;;;29.30;99.90;;;;;;5135017;27;19911;-72
2023/08/08 12:01:33;;;;;;;;;;;29.50;99.90;;;;;;5135003;27;19914;-72
2023/08/08 12:03:58;;;;;;;;;;;29.40;99.90;;;;;;5136265;27;19976;-72
2023/08/08 12:06:28;;;;;;;;;;;29.70;99.90;;;;;;5134812;27;20355;-72
2023/08/08 12:08:54;;;;;;;;;;;29.70;99.90;;;;;;5136125;27;19914;-73
2023/08/08 12:11:20;;;;;;;;;;;29.80;99.90;;;;;;5136566;27;19919;-72
2023/08/08 12:13:46;;;;;;;;;;;29.90;99.90;;;;;;5136102;27;19910;-72
2023/08/08 12:16:13;;;;;;;;;;;30.00;99.90;;;;;;5136023;27;20016;-72
2023/08/08 12:18:39;;;;;;;;;;;29.90;99.90;;;;;;5135911;27;19940;-72
2023/08/08 12:21:05;;;;;;;;;;;30.00;99.90;;;;;;5135970;27;19975;-72
2023/08/08 12:23:31;;;;;;;;;;;29.80;99.90;;;;;;5135850;27;19903;-72
2023/08/08 12:25:58;;;;;;;;;;;29.90;99.90;;;;;;5134323;27;19903;-72
2023/08/08 12:28:24;;;;;;;;;;;29.90;99.90;;;;;;5136061;27;19907;-72
2023/08/08 12:30:50;;;;;;;;;;;30.00;99.90;;;;;;5135664;27;20327;-73
2023/08/08 12:33:15;;;;;;;;;;;30.10;99.90;;;;;;5135541;27;19939;-72
2023/08/08 12:35:41;;;;;;;;;;;30.20;99.90;;;;;;5134332;27;19903;-72
2023/08/08 12:38:07;;;;;;;;;;;30.20;99.90;;;;;;5134160;27;19974;-71
2023/08/08 12:40:33;;;;;;;;;;;30.30;99.90;;;;;;5135617;27;20374;-72
2023/08/08 12:42:59;;;;;;;;;;;30.20;99.90;;;;;;5135649;27;19910;-71
2023/08/08 12:45:25;;;;;;;;;;;30.40;99.90;;;;;;5135260;27;19904;-72
2023/08/08 12:47:51;;;;;;;;;;;30.40;99.90;;;;;;5135493;27;19903;-73
2023/08/08 12:50:17;;;;;;;;;;;30.50;99.90;;;;;;5135831;27;19903;-73
2023/08/08 12:52:43;;;;;;;;;;;30.60;99.90;;;;;;5135588;27;19907;-71
2023/08/08 12:55:11;;;;;;;;;;;30.40;99.90;;;;;;5135571;27;19904;-71
2023/08/08 12:57:36;;;;;;;;;;;30.10;99.90;;;;;;5135666;27;19990;-70
2023/08/08 13:00:03;;;;;;;;;;;30.10;99.90;;;;;;5134980;27;20006;-72
2023/08/08 13:02:29;;;;;;;;;;;30.30;99.90;;;;;;5135292;27;19957;-73
2023/08/08 13:04:55;;;;;;;;;;;30.10;99.90;;;;;;5133988;27;19945;-72
2023/08/08 13:07:21;;;;;;;;;;;30.20;99.90;;;;;;5135140;27;19904;-72
2023/08/08 13:09:47;;;;;;;;;;;30.30;99.90;;;;;;5135555;27;19903;-74
2023/08/08 13:12:12;;;;;;;;;;;30.50;99.90;;;;;;5135199;27;20007;-73
2023/08/08 13:14:38;;;;;;;;;;;30.50;99.90;;;;;;5135110;27;19903;-72
2023/08/08 13:17:04;;;;;;;;;;;30.50;99.60;;;;;;5134912;27;20242;-72
2023/08/08 13:19:30;;;;;;;;;;;30.60;99.90;;;;;;5135272;27;19918;-73
2023/08/08 13:21:56;;;;;;;;;;;30.60;99.90;;;;;;5134955;27;19910;-72
2023/08/08 13:24:24;;;;;;;;;;;30.50;99.90;;;;;;5135211;27;19948;-73
2023/08/08 13:26:50;;;;;;;;;;;30.60;99.90;;;;;;5133774;27;19953;-72
2023/08/08 13:29:16;;;;;;;;;;;30.60;99.90;;;;;;5135285;27;20360;-72
2023/08/08 13:31:43;;;;;;;;;;;30.50;99.90;;;;;;5134628;27;19903;-72
2023/08/08 13:34:09;;;;;;;;;;;30.60;99.90;;;;;;5134568;27;20307;-72
2023/08/08 13:36:35;;;;;;;;;;;30.70;99.90;;;;;;5134685;27;20464;-71
2023/08/08 13:39:01;;;;;;;;;;;30.70;99.90;;;;;;5133023;27;19997;-74
2023/08/08 13:41:27;;;;;;;;;;;30.70;99.90;;;;;;5134680;27;19903;-72
2023/08/08 13:43:53;;;;;;;;;;;30.40;99.90;;;;;;5134811;27;19903;-72
2023/08/08 13:46:18;;;;;;;;;;;30.40;99.90;;;;;;5134710;27;19903;-72
2023/08/08 13:48:44;;;;;;;;;;;30.40;99.90;;;;;;5132967;27;19907;-73
2023/08/08 13:51:10;;;;;;;;;;;30.40;99.90;;;;;;5134787;27;19964;-71
2023/08/08 13:53:36;;;;;;;;;;;30.40;99.90;;;;;;5132850;27;19919;-72
2023/08/08 13:56:02;;;;;;;;;;;30.40;99.90;;;;;;5133222;27;19904;-73
2023/08/08 13:58:27;;;;;;;;;;;30.50;99.90;;;;;;5134858;27;19918;-72
2023/08/08 14:00:54;;;;;;;;;;;30.30;99.90;;;;;;5134000;27;20421;-72
2023/08/08 14:03:20;;;;;;;;;;;30.10;99.90;;;;;;5134437;27;20085;-73
2023/08/08 14:05:46;;;;;;;;;;;30.30;99.90;;;;;;5134212;27;19960;-74
2023/08/08 14:08:12;;;;;;;;;;;30.10;99.90;;;;;;5134454;27;19903;-72
2023/08/08 14:10:38;;;;;;;;;;;30.20;99.90;;;;;;5134044;27;19990;-72